Time;durP1;ratioP1;P1;durP2;ratioP2;P2;SDS_P1;SDS_P2;PMS_P1;PMS_P2;Temp;Humidity;BMP_temperature;BMP_pressure;BME280_temperature;BME280_humidity;BME280_pressure;Samples;Min_cycle;Max_cycle;Signal;HPM_P1;HPM_P2
2023/05/13 00:00:39;;;;;;;;;;;;;;;19.18;64.01;98718.03;2077581;28;19921;-50
2023/05/13 00:01:40;;;;;;;;;;;;;;;19.18;64.02;98712.66;2076066;28;20373;-49
2023/05/13 00:02:42;;;;;;;;;;;;;;;19.16;64.07;98714.72;2075876;28;20736;-51
2023/05/13 00:03:42;;;;;;;;;;;;;;;19.16;64.00;98715.53;2074810;28;19921;-50
2023/05/13 00:04:43;;;;;;;;;;;;;;;19.15;63.98;98721.97;2075219;28;19958;-51
2023/05/13 00:05:44;;;;;;;;;;;;;;;19.15;63.74;98724.66;2076062;28;20428;-51
2023/05/13 00:06:46;;;;;;;;;;;;;;;19.17;63.74;98719.09;2077196;28;19932;-51
2023/05/13 00:07:46;;;;;;;;;;;;;;;19.16;63.97;98720.09;2076912;28;20330;-51
2023/05/13 00:08:47;;;;;;;;;;;;;;;19.18;64.16;98720.72;2076500;28;19929;-51
2023/05/13 00:09:48;;;;;;;;;;;;;;;19.16;64.06;98725.47;2076838;28;19924;-53
2023/05/13 00:10:49;;;;;;;;;;;;;;;19.16;64.06;98720.09;2075899;28;19921;-53
2023/05/13 00:11:50;;;;;;;;;;;;;;;19.17;64.03;98719.91;2076012;28;19925;-52
2023/05/13 00:12:51;;;;;;;;;;;;;;;19.17;63.90;98724.47;2076920;28;20292;-49
2023/05/13 00:13:52;;;;;;;;;;;;;;;19.16;63.77;98718.22;2079722;28;19924;-56
2023/05/13 00:14:53;;;;;;;;;;;;;;;19.17;63.73;98721.78;2079162;28;19931;-51
2023/05/13 00:15:55;;;;;;;;;;;;;;;19.17;63.58;98719.09;2074477;28;19982;-51
2023/05/13 00:16:57;;;;;;;;;;;;;;;19.17;63.79;98717.22;2075601;28;20023;-56
2023/05/13 00:17:58;;;;;;;;;;;;;;;19.17;63.91;98717.22;2076439;28;20036;-53
2023/05/13 00:18:59;;;;;;;;;;;;;;;19.16;63.77;98717.41;2078596;28;19921;-57
2023/05/13 00:20:00;;;;;;;;;;;;;;;19.17;64.03;98719.91;2076204;28;19920;-52
2023/05/13 00:21:01;;;;;;;;;;;;;;;19.16;63.95;98714.72;2076243;28;19925;-52
2023/05/13 00:22:02;;;;;;;;;;;;;;;19.16;63.80;98714.72;2076721;28;19986;-53
2023/05/13 00:23:03;;;;;;;;;;;;;;;19.15;63.68;98705.84;2077218;28;20428;-54
2023/05/13 00:24:04;;;;;;;;;;;;;;;19.15;63.95;98710.38;2075475;28;20340;-55
2023/05/13 00:25:06;;;;;;;;;;;;;;;19.15;64.01;98708.53;2076581;28;19938;-54
2023/05/13 00:26:06;;;;;;;;;;;;;;;19.14;64.06;98706.88;2076189;28;20873;-47
2023/05/13 00:27:07;;;;;;;;;;;;;;;19.16;63.86;98710.16;2078134;28;19937;-54
2023/05/13 00:28:08;;;;;;;;;;;;;;;19.16;63.49;98706.66;2077317;28;19985;-55
2023/05/13 00:29:10;;;;;;;;;;;;;;;19.14;64.06;98711.44;2077054;28;19932;-54
2023/05/13 00:30:10;;;;;;;;;;;;;;;19.14;63.85;98709.56;2077962;28;19928;-50
2023/05/13 00:31:13;;;;;;;;;;;;;;;19.13;63.73;98707.06;2076729;28;19960;-55
2023/05/13 00:32:14;;;;;;;;;;;;;;;19.14;63.73;98714.13;2078282;28;21048;-51
2023/05/13 00:33:16;;;;;;;;;;;;;;;19.12;63.98;98708.94;2076035;28;20437;-51
2023/05/13 00:34:17;;;;;;;;;;;;;;;19.11;63.96;98696.53;2077249;28;19925;-54
2023/05/13 00:35:19;;;;;;;;;;;;;;;19.13;63.97;98701.69;2079198;28;19975;-53
2023/05/13 00:36:19;;;;;;;;;;;;;;;19.13;63.89;98699.00;2077829;28;19994;-58
2023/05/13 00:37:20;;;;;;;;;;;;;;;19.12;64.06;98702.75;2077098;28;19983;-54
2023/05/13 00:38:21;;;;;;;;;;;;;;;19.13;63.93;98699.00;2075431;28;19975;-51
2023/05/13 00:39:23;;;;;;;;;;;;;;;19.13;63.99;98699.00;2077466;28;20346;-52
2023/05/13 00:40:24;;;;;;;;;;;;;;;19.12;64.00;98697.38;2077513;28;20337;-53
2023/05/13 00:41:26;;;;;;;;;;;;;;;19.12;63.92;98703.56;2076005;28;19925;-55
2023/05/13 00:42:26;;;;;;;;;;;;;;;19.13;63.74;98702.50;2075094;28;20016;-51
2023/05/13 00:43:28;;;;;;;;;;;;;;;19.09;63.69;98695.91;2075267;28;19925;-54
2023/05/13 00:44:28;;;;;;;;;;;;;;;19.12;63.91;98702.75;2077190;28;20457;-56
2023/05/13 00:45:30;;;;;;;;;;;;;;;19.12;63.47;98702.75;2076589;28;19991;-56
2023/05/13 00:46:32;;;;;;;;;;;;;;;19.12;63.65;98691.97;2077545;28;19929;-58
2023/05/13 00:47:33;;;;;;;;;;;;;;;19.10;63.94;98696.72;2077742;28;20374;-51
2023/05/13 00:48:34;;;;;;;;;;;;;;;19.11;63.66;98685.78;2075287;28;20373;-57
2023/05/13 00:49:36;;;;;;;;;;;;;;;19.11;63.79;98687.63;2077650;28;19924;-56
2023/05/13 00:50:37;;;;;;;;;;;;;;;19.09;63.84;98687.03;2077656;28;20540;-53
2023/05/13 00:51:39;;;;;;;;;;;;;;;19.08;64.05;98680.78;2074499;28;20272;-52
2023/05/13 00:52:41;;;;;;;;;;;;;;;19.10;63.58;98678.72;2076857;28;20004;-53
2023/05/13 00:53:42;;;;;;;;;;;;;;;19.09;63.75;98681.66;2076865;28;20317;-47
2023/05/13 00:54:43;;;;;;;;;;;;;;;19.08;63.54;98690.72;2075661;28;20351;-55
2023/05/13 00:55:45;;;;;;;;;;;;;;;19.09;63.90;98685.16;2077510;28;19921;-52
2023/05/13 00:56:46;;;;;;;;;;;;;;;19.10;63.76;98688.66;2076727;28;19947;-52
2023/05/13 00:57:47;;;;;;;;;;;;;;;19.09;64.07;98679.78;2076569;28;19925;-53
2023/05/13 00:58:48;;;;;;;;;;;;;;;19.09;63.93;98687.03;2075373;28;20588;-51
2023/05/13 00:59:49;;;;;;;;;;;;;;;19.10;63.48;98684.09;2075142;28;19983;-52
2023/05/13 01:00:55;;;;;;;;;;;;;;;19.10;63.63;98691.34;2077852;28;19928;-50
2023/05/13 01:02:00;;;;;;;;;;;;;;;19.10;63.94;98694.03;2077262;28;19937;-51
2023/05/13 01:03:04;;;;;;;;;;;;;;;19.10;63.71;98686.81;2076601;28;19924;-56
2023/05/13 01:04:12;;;;;;;;;;;;;;;19.10;63.84;98691.34;2076681;28;19928;-52
2023/05/13 01:05:18;;;;;;;;;;;;;;;19.10;63.55;98688.66;2077814;28;19933;-53
2023/05/13 01:06:21;;;;;;;;;;;;;;;19.07;63.78;98689.91;2077246;28;19968;-50
2023/05/13 01:07:26;;;;;;;;;;;;;;;19.07;63.87;98689.91;2076373;28;20630;-55
2023/05/13 01:08:32;;;;;;;;;;;;;;;19.08;63.54;98693.41;2075451;28;19963;-55
2023/05/13 01:09:37;;;;;;;;;;;;;;;19.09;63.78;98695.09;2078669;28;19921;-56
2023/05/13 01:10:41;;;;;;;;;;;;;;;19.08;63.86;98694.22;2077730;28;20381;-51
2023/05/13 01:11:43;;;;;;;;;;;;;;;19.09;63.64;98701.28;2076594;28;19936;-52
2023/05/13 01:12:46;;;;;;;;;;;;;;;19.09;63.85;98703.97;2077176;28;20027;-53
2023/05/13 01:13:48;;;;;;;;;;;;;;;19.09;63.83;98700.47;2078433;28;19960;-49
2023/05/13 01:14:52;;;;;;;;;;;;;;;19.10;63.48;98702.09;2076404;28;19960;-47
2023/05/13 01:15:55;;;;;;;;;;;;;;;19.08;63.92;98699.59;2076864;28;20429;-56
2023/05/13 01:17:01;;;;;;;;;;;;;;;19.07;63.70;98703.34;2078284;28;19986;-56
2023/05/13 01:18:05;;;;;;;;;;;;;;;19.06;63.53;98706.25;2077614;28;19929;-52
2023/05/13 01:19:11;;;;;;;;;;;;;;;19.07;63.83;98697.16;2077254;28;19921;-55
2023/05/13 01:20:12;;;;;;;;;;;;;;;19.07;63.61;98699.84;2076490;28;20724;-51
2023/05/13 01:21:14;;;;;;;;;;;;;;;19.06;63.46;98695.50;2077720;28;19925;-53
2023/05/13 01:22:15;;;;;;;;;;;;;;;19.04;63.62;98693.00;2077115;28;20023;-57
2023/05/13 01:23:17;;;;;;;;;;;;;;;19.04;63.55;98690.31;2078188;28;20240;-55
2023/05/13 01:24:17;;;;;;;;;;;;;;;19.05;63.78;98691.13;2075531;28;19929;-54
2023/05/13 01:25:19;;;;;;;;;;;;;;;19.05;63.80;98689.28;2076851;28;20058;-53
2023/05/13 01:26:20;;;;;;;;;;;;;;;19.07;63.84;98684.53;2076287;28;19928;-50
2023/05/13 01:27:21;;;;;;;;;;;;;;;19.07;63.58;98689.09;2075780;28;19925;-47
2023/05/13 01:28:22;;;;;;;;;;;;;;;19.05;63.71;98680.38;2076197;28;20476;-52
2023/05/13 01:29:23;;;;;;;;;;;;;;;19.06;63.37;98677.50;2075940;28;19929;-51
2023/05/13 01:30:24;;;;;;;;;;;;;;;19.06;63.80;98682.06;2076557;28;19982;-53
2023/05/13 01:31:25;;;;;;;;;;;;;;;19.05;63.73;98685.75;2075619;28;19925;-55
2023/05/13 01:32:26;;;;;;;;;;;;;;;19.04;63.81;98674.19;2077268;28;20520;-50
2023/05/13 01:33:29;;;;;;;;;;;;;;;19.05;63.40;98678.53;2075364;28;19925;-47
2023/05/13 01:34:30;;;;;;;;;;;;;;;19.04;63.74;98676.06;2075704;28;19933;-50
2023/05/13 01:35:32;;;;;;;;;;;;;;;19.04;63.79;98673.38;2076819;28;20302;-55
2023/05/13 01:36:33;;;;;;;;;;;;;;;19.04;63.89;98676.06;2079159;28;19925;-53
2023/05/13 01:37:36;;;;;;;;;;;;;;;19.02;63.86;98670.88;2075551;28;19928;-57
2023/05/13 01:38:38;;;;;;;;;;;;;;;19.02;63.79;98675.41;2075518;28;19956;-55
2023/05/13 01:39:40;;;;;;;;;;;;;;;19.03;63.89;98669.00;2077903;28;20325;-54
2023/05/13 01:40:41;;;;;;;;;;;;;;;19.02;63.73;98664.66;2076141;28;19994;-47
2023/05/13 01:41:43;;;;;;;;;;;;;;;19.03;63.49;98663.63;2076162;28;19928;-52
2023/05/13 01:42:44;;;;;;;;;;;;;;;19.03;63.76;98664.47;2076697;28;19921;-57
2023/05/13 01:43:45;;;;;;;;;;;;;;;19.02;63.70;98660.13;2077411;28;20019;-48
2023/05/13 01:44:46;;;;;;;;;;;;;;;19.01;63.58;98663.03;2077977;28;19928;-53
2023/05/13 01:45:47;;;;;;;;;;;;;;;19.04;63.79;98668.00;2076529;28;19925;-52
2023/05/13 01:46:49;;;;;;;;;;;;;;;19.02;63.70;98662.81;2075778;28;19989;-55
2023/05/13 01:47:50;;;;;;;;;;;;;;;19.03;63.40;98660.94;2076241;28;19925;-52
2023/05/13 01:48:51;;;;;;;;;;;;;;;19.03;63.57;98663.63;2075667;28;20418;-57
2023/05/13 01:49:52;;;;;;;;;;;;;;;19.03;63.72;98652.88;2076023;28;19924;-51
2023/05/13 01:50:52;;;;;;;;;;;;;;;19.02;63.85;98664.66;2076375;28;19925;-52
2023/05/13 01:51:54;;;;;;;;;;;;;;;19.02;63.52;98667.34;2076437;28;19955;-55
2023/05/13 01:52:56;;;;;;;;;;;;;;;19.02;63.51;98661.97;2077698;28;19929;-47
2023/05/13 01:53:57;;;;;;;;;;;;;;;19.01;63.54;98663.03;2077924;28;19933;-53
2023/05/13 01:54:58;;;;;;;;;;;;;;;19.01;63.59;98668.41;2077436;28;19937;-51
2023/05/13 01:56:00;;;;;;;;;;;;;;;19.01;63.44;98668.41;2076816;28;21940;-56
2023/05/13 01:57:00;;;;;;;;;;;;;;;19.00;63.68;98666.72;2077364;28;19979;-49
2023/05/13 01:58:02;;;;;;;;;;;;;;;19.00;63.50;98672.09;2076565;28;19924;-49
2023/05/13 01:59:02;;;;;;;;;;;;;;;19.00;63.52;98669.41;2077673;28;19974;-53
2023/05/13 02:00:05;;;;;;;;;;;;;;;18.96;63.98;98667.13;2075594;28;19990;-53
2023/05/13 02:01:05;;;;;;;;;;;;;;;18.99;63.63;98671.28;2078894;28;20580;-49
2023/05/13 02:02:06;;;;;;;;;;;;;;;19.00;63.75;98674.78;2077233;28;19921;-55
2023/05/13 02:03:07;;;;;;;;;;;;;;;19.01;63.41;98676.47;2076341;28;19946;-51
2023/05/13 02:04:08;;;;;;;;;;;;;;;19.01;63.70;98673.78;2078436;28;20368;-57
2023/05/13 02:05:09;;;;;;;;;;;;;;;19.01;63.54;98679.16;2076208;28;21419;-53
2023/05/13 02:06:10;;;;;;;;;;;;;;;19.00;63.58;98672.09;2077450;28;20002;-51
2023/05/13 02:07:11;;;;;;;;;;;;;;;18.98;63.52;98678.53;2079281;28;19921;-52
2023/05/13 02:08:13;;;;;;;;;;;;;;;18.99;63.40;98673.97;2076252;28;19979;-47
2023/05/13 02:09:14;;;;;;;;;;;;;;;18.97;63.79;98668.81;2078021;28;20485;-52
2023/05/13 02:10:15;;;;;;;;;;;;;;;18.98;63.76;98667.78;2076677;28;19925;-49
2023/05/13 02:11:16;;;;;;;;;;;;;;;18.99;63.53;98673.97;2076356;28;20016;-56
2023/05/13 02:12:17;;;;;;;;;;;;;;;18.98;63.42;98670.47;2077658;28;19929;-55
2023/05/13 02:13:18;;;;;;;;;;;;;;;18.98;63.57;98678.53;2077702;28;19979;-51
2023/05/13 02:14:19;;;;;;;;;;;;;;;18.96;63.61;98677.88;2075215;28;20698;-56
2023/05/13 02:15:19;;;;;;;;;;;;;;;18.97;63.67;98673.34;2076723;28;19931;-50
2023/05/13 02:16:21;;;;;;;;;;;;;;;18.96;63.48;98672.50;2077386;28;19928;-56
2023/05/13 02:17:21;;;;;;;;;;;;;;;18.97;63.42;98670.66;2078132;28;19954;-53
2023/05/13 02:18:23;;;;;;;;;;;;;;;18.98;63.44;98673.16;2079279;28;19955;-58
2023/05/13 02:19:23;;;;;;;;;;;;;;;18.98;63.28;98675.00;2077526;28;19978;-53
2023/05/13 02:20:25;;;;;;;;;;;;;;;18.97;63.71;98668.81;2076064;28;19978;-53
2023/05/13 02:21:25;;;;;;;;;;;;;;;18.97;63.83;98676.88;2077915;28;19928;-54
2023/05/13 02:22:27;;;;;;;;;;;;;;;18.97;63.27;98665.28;2077954;28;20016;-52
2023/05/13 02:23:29;;;;;;;;;;;;;;;18.98;63.78;98661.56;2078762;28;20349;-50
2023/05/13 02:24:30;;;;;;;;;;;;;;;18.97;63.47;98663.44;2076601;28;19958;-55
2023/05/13 02:25:31;;;;;;;;;;;;;;;18.96;63.33;98661.75;2078434;28;20693;-53
2023/05/13 02:26:32;;;;;;;;;;;;;;;18.97;63.34;98662.59;2077675;28;19986;-51
2023/05/13 02:27:33;;;;;;;;;;;;;;;18.96;63.42;98660.94;2077389;28;19997;-53
2023/05/13 02:28:34;;;;;;;;;;;;;;;18.96;63.45;98658.25;2077329;28;19966;-53
2023/05/13 02:29:34;;;;;;;;;;;;;;;18.96;63.42;98663.63;2078909;28;20340;-59
2023/05/13 02:30:36;;;;;;;;;;;;;;;18.96;63.33;98661.75;2077744;28;20003;-54
2023/05/13 02:31:36;;;;;;;;;;;;;;;18.96;63.48;98663.63;2077434;28;20918;-54
2023/05/13 02:32:41;;;;;;;;;;;;;;;18.96;63.85;98667.13;2077711;28;19977;-56
2023/05/13 02:33:41;;;;;;;;;;;;;;;18.96;63.82;98666.31;2077355;28;19935;-51
2023/05/13 02:34:43;;;;;;;;;;;;;;;18.97;63.42;98670.66;2079646;28;19927;-50
2023/05/13 02:35:43;;;;;;;;;;;;;;;18.94;63.63;98666.53;2077082;28;19998;-54
2023/05/13 02:36:45;;;;;;;;;;;;;;;18.95;63.77;98667.38;2078610;28;19975;-53
2023/05/13 02:37:46;;;;;;;;;;;;;;;18.94;63.66;98668.38;2077640;28;20668;-55
2023/05/13 02:38:48;;;;;;;;;;;;;;;18.95;63.50;98670.06;2079244;28;19944;-51
2023/05/13 02:39:49;;;;;;;;;;;;;;;18.94;63.49;98668.38;2078009;28;19925;-58
2023/05/13 02:40:51;;;;;;;;;;;;;;;18.94;63.48;98666.53;2078217;28;19954;-51
2023/05/13 02:41:51;;;;;;;;;;;;;;;18.94;63.43;98663.84;2078468;28;19974;-55
2023/05/13 02:42:53;;;;;;;;;;;;;;;18.95;63.73;98673.56;2078327;28;20457;-51
2023/05/13 02:43:53;;;;;;;;;;;;;;;18.93;63.49;98672.94;2080050;28;19925;-50
2023/05/13 02:44:55;;;;;;;;;;;;;;;18.94;63.34;98677.28;2080889;28;21634;-54
2023/05/13 02:45:55;;;;;;;;;;;;;;;18.94;63.72;98671.91;2079980;28;19983;-56
2023/05/13 02:46:56;;;;;;;;;;;;;;;18.94;63.61;98673.75;2081559;28;19932;-56
2023/05/13 02:47:57;;;;;;;;;;;;;;;18.94;63.88;98679.97;2079171;28;20367;-56
2023/05/13 02:48:59;;;;;;;;;;;;;;;18.93;63.53;98678.31;2080169;28;19928;-51
2023/05/13 02:49:59;;;;;;;;;;;;;;;18.93;63.57;98682.84;2077637;28;19977;-49
2023/05/13 02:51:01;;;;;;;;;;;;;;;18.92;63.45;98686.59;2081077;28;19971;-54
2023/05/13 02:52:01;;;;;;;;;;;;;;;18.91;63.56;98677.66;2081764;28;20105;-59
2023/05/13 02:53:03;;;;;;;;;;;;;;;18.89;63.37;98682.44;2081171;28;19928;-56
2023/05/13 02:54:05;;;;;;;;;;;;;;;18.90;63.60;98681.41;2082447;28;20018;-49
2023/05/13 02:55:08;;;;;;;;;;;;;;;18.91;63.79;98680.34;2079575;28;19963;-48
2023/05/13 02:56:08;;;;;;;;;;;;;;;18.92;63.78;98686.59;2078336;28;19925;-52
2023/05/13 02:57:10;;;;;;;;;;;;;;;18.92;63.43;98676.66;2079732;28;19929;-53
2023/05/13 02:58:12;;;;;;;;;;;;;;;18.91;63.69;98685.72;2078782;28;20040;-51
2023/05/13 02:59:13;;;;;;;;;;;;;;;18.90;63.55;98684.09;2080039;28;19932;-53
2023/05/13 03:00:14;;;;;;;;;;;;;;;18.91;63.54;98684.91;2078898;28;19999;-51
2023/05/13 03:01:16;;;;;;;;;;;;;;;18.92;63.58;98692.78;2078817;28;20752;-48
2023/05/13 03:02:16;;;;;;;;;;;;;;;18.91;63.41;98687.59;2078461;28;19937;-51
2023/05/13 03:03:18;;;;;;;;;;;;;;;18.90;63.69;98684.09;2078037;28;19921;-51
2023/05/13 03:04:18;;;;;;;;;;;;;;;18.91;63.45;98685.72;2079441;28;19928;-48
2023/05/13 03:05:19;;;;;;;;;;;;;;;18.91;63.42;98691.09;2079852;28;19925;-52
2023/05/13 03:06:20;;;;;;;;;;;;;;;18.90;63.43;98684.09;2078932;28;19985;-52
2023/05/13 03:07:21;;;;;;;;;;;;;;;18.89;63.64;98682.44;2080134;28;20033;-53
2023/05/13 03:08:22;;;;;;;;;;;;;;;18.88;63.62;98680.78;2080026;28;19942;-52
2023/05/13 03:09:25;;;;;;;;;;;;;;;18.90;63.30;98684.09;2079983;28;19936;-53
2023/05/13 03:10:25;;;;;;;;;;;;;;;18.89;63.69;98682.44;2079281;28;19925;-50
2023/05/13 03:11:26;;;;;;;;;;;;;;;18.90;63.27;98683.25;2080036;28;19925;-52
2023/05/13 03:12:27;;;;;;;;;;;;;;;18.89;63.67;98682.44;2080269;28;19974;-50
2023/05/13 03:13:28;;;;;;;;;;;;;;;18.88;63.76;98675.41;2080808;28;19967;-52
2023/05/13 03:14:29;;;;;;;;;;;;;;;18.88;63.44;98675.41;2077494;28;19925;-52
2023/05/13 03:15:30;;;;;;;;;;;;;;;18.89;63.40;98679.75;2078143;28;19921;-51
2023/05/13 03:16:31;;;;;;;;;;;;;;;18.90;63.69;98684.09;2078834;28;19990;-52
2023/05/13 03:17:32;;;;;;;;;;;;;;;18.91;63.51;98685.72;2077232;28;19975;-51
2023/05/13 03:18:33;;;;;;;;;;;;;;;18.90;63.38;98685.97;2076920;28;20049;-51
2023/05/13 03:19:36;;;;;;;;;;;;;;;18.89;63.35;98684.31;2077835;28;19975;-49
2023/05/13 03:20:36;;;;;;;;;;;;;;;18.87;63.34;98686.38;2078119;28;20545;-53
2023/05/13 03:21:37;;;;;;;;;;;;;;;18.88;63.39;98686.16;2077792;28;19987;-52
2023/05/13 03:22:38;;;;;;;;;;;;;;;18.88;63.42;98686.16;2076527;28;19928;-52
2023/05/13 03:23:39;;;;;;;;;;;;;;;18.88;63.48;98686.16;2080031;28;19947;-52
2023/05/13 03:24:42;;;;;;;;;;;;;;;18.88;63.59;98686.16;2078148;28;20043;-49
2023/05/13 03:25:43;;;;;;;;;;;;;;;18.88;63.42;98686.16;2080101;28;19967;-54
2023/05/13 03:26:44;;;;;;;;;;;;;;;18.88;63.70;98688.84;2077283;28;19933;-57
2023/05/13 03:27:45;;;;;;;;;;;;;;;18.89;63.54;98690.50;2078382;28;20306;-54
2023/05/13 03:28:46;;;;;;;;;;;;;;;18.89;63.34;98687.81;2078692;28;19921;-52
2023/05/13 03:29:47;;;;;;;;;;;;;;;18.87;63.25;98695.25;2076133;28;19987;-54
2023/05/13 03:30:47;;;;;;;;;;;;;;;18.86;63.67;98695.44;2077180;28;19924;-56
2023/05/13 03:31:49;;;;;;;;;;;;;;;18.87;63.22;98694.44;2075668;28;19924;-55
2023/05/13 03:32:49;;;;;;;;;;;;;;;18.87;63.47;98699.81;2076912;28;21602;-51
2023/05/13 03:33:51;;;;;;;;;;;;;;;18.85;63.41;98697.31;2076839;28;19929;-49
2023/05/13 03:34:51;;;;;;;;;;;;;;;18.84;63.69;98692.97;2077033;28;19982;-48
2023/05/13 03:35:53;;;;;;;;;;;;;;;18.86;63.58;98688.22;2077079;28;20437;-49
2023/05/13 03:36:54;;;;;;;;;;;;;;;18.86;63.38;98688.22;2076442;28;20367;-57
2023/05/13 03:37:54;;;;;;;;;;;;;;;18.86;63.20;98685.53;2076282;28;20021;-55
2023/05/13 03:38:56;;;;;;;;;;;;;;;18.88;63.60;98690.69;2077213;28;19987;-54
2023/05/13 03:39:58;;;;;;;;;;;;;;;18.87;63.51;98699.81;2075893;28;19936;-58
2023/05/13 03:40:59;;;;;;;;;;;;;;;18.86;63.56;98693.59;2078810;28;20057;-56
2023/05/13 03:42:00;;;;;;;;;;;;;;;18.87;63.32;98699.81;2076492;28;19935;-53
2023/05/13 03:43:01;;;;;;;;;;;;;;;18.85;63.44;98694.63;2076030;28;19928;-49
2023/05/13 03:44:02;;;;;;;;;;;;;;;18.86;63.35;98695.44;2075967;28;19986;-53
2023/05/13 03:45:03;;;;;;;;;;;;;;;18.85;63.34;98686.56;2077196;28;20329;-53
2023/05/13 03:46:04;;;;;;;;;;;;;;;18.85;63.48;98685.72;2075100;28;20022;-55
2023/05/13 03:47:06;;;;;;;;;;;;;;;18.85;63.34;98696.47;2077483;28;20437;-56
2023/05/13 03:48:06;;;;;;;;;;;;;;;18.85;63.54;98691.09;2075322;28;19925;-48
2023/05/13 03:49:08;;;;;;;;;;;;;;;18.85;63.11;98681.19;2076600;28;19998;-57
2023/05/13 03:50:08;;;;;;;;;;;;;;;18.85;63.34;98683.03;2076355;28;19928;-53
2023/05/13 03:51:10;;;;;;;;;;;;;;;18.84;63.58;98695.66;2076638;28;19929;-56
2023/05/13 03:52:10;;;;;;;;;;;;;;;18.83;63.35;98699.38;2073973;28;19925;-53
2023/05/13 03:53:12;;;;;;;;;;;;;;;18.83;63.61;98691.28;2076390;28;19921;-50
2023/05/13 03:54:12;;;;;;;;;;;;;;;18.82;63.59;98692.34;2075176;28;19924;-54
2023/05/13 03:55:15;;;;;;;;;;;;;;;18.80;63.50;98691.72;2077464;28;19924;-52
2023/05/13 03:56:15;;;;;;;;;;;;;;;18.82;63.48;98681.59;2074658;28;19925;-54
2023/05/13 03:57:17;;;;;;;;;;;;;;;18.83;63.42;98683.25;2076818;28;19982;-50
2023/05/13 03:58:18;;;;;;;;;;;;;;;18.82;63.35;98692.34;2076395;28;20667;-58
2023/05/13 03:59:19;;;;;;;;;;;;;;;18.82;63.64;98697.72;2076769;28;19933;-52
2023/05/13 04:00:20;;;;;;;;;;;;;;;18.83;63.77;98699.38;2074463;28;20431;-56
2023/05/13 04:01:21;;;;;;;;;;;;;;;18.82;63.22;98689.66;2078158;28;19970;-47
2023/05/13 04:02:22;;;;;;;;;;;;;;;18.82;63.24;98697.72;2076067;28;19974;-52
2023/05/13 04:03:24;;;;;;;;;;;;;;;18.82;63.18;98696.91;2075983;28;20374;-56
2023/05/13 04:04:24;;;;;;;;;;;;;;;18.83;63.38;98690.47;2077923;28;19971;-55
2023/05/13 04:05:26;;;;;;;;;;;;;;;18.80;63.49;98691.72;2076373;28;19933;-51
2023/05/13 04:06:26;;;;;;;;;;;;;;;18.82;63.28;98692.34;2077020;28;19921;-52
2023/05/13 04:07:28;;;;;;;;;;;;;;;18.82;63.29;98699.59;2073897;28;19971;-50
2023/05/13 04:08:28;;;;;;;;;;;;;;;18.82;63.26;98695.03;2077240;28;19983;-50
2023/05/13 04:09:29;;;;;;;;;;;;;;;18.81;63.13;98693.38;2078193;28;19924;-54
2023/05/13 04:10:31;;;;;;;;;;;;;;;18.81;63.44;98701.44;2075801;28;19929;-51
2023/05/13 04:11:33;;;;;;;;;;;;;;;18.79;63.58;98708.88;2077456;28;20032;-55
2023/05/13 04:12:33;;;;;;;;;;;;;;;18.78;63.33;98704.53;2076087;28;19967;-46
2023/05/13 04:13:35;;;;;;;;;;;;;;;18.81;63.34;98708.69;2075174;28;19933;-57
2023/05/13 04:14:36;;;;;;;;;;;;;;;18.80;63.50;98710.50;2076454;28;19928;-51
2023/05/13 04:15:37;;;;;;;;;;;;;;;18.81;63.23;98709.50;2075019;28;20379;-57
2023/05/13 04:16:38;;;;;;;;;;;;;;;18.81;63.46;98711.38;2075662;28;19986;-53
2023/05/13 04:17:40;;;;;;;;;;;;;;;18.79;63.42;98706.19;2075572;28;20325;-54
2023/05/13 04:18:40;;;;;;;;;;;;;;;18.77;63.74;98708.25;2074722;28;19929;-53
2023/05/13 04:19:42;;;;;;;;;;;;;;;18.79;63.34;98703.50;2075338;28;20352;-58
2023/05/13 04:20:42;;;;;;;;;;;;;;;18.78;63.57;98707.22;2076312;28;19932;-55
2023/05/13 04:21:44;;;;;;;;;;;;;;;18.80;63.40;98707.84;2073994;28;19929;-54
2023/05/13 04:22:44;;;;;;;;;;;;;;;18.80;63.55;98709.69;2075961;28;19924;-51
2023/05/13 04:23:46;;;;;;;;;;;;;;;18.80;63.20;98705.16;2073937;28;19963;-51
2023/05/13 04:24:46;;;;;;;;;;;;;;;18.78;63.30;98706.38;2076399;28;20334;-52
2023/05/13 04:25:51;;;;;;;;;;;;;;;18.78;63.30;98711.75;2074484;28;19929;-57
2023/05/13 04:26:52;;;;;;;;;;;;;;;18.80;63.63;98710.50;2076677;28;19968;-50
2023/05/13 04:27:53;;;;;;;;;;;;;;;18.79;63.56;98708.88;2076450;28;19988;-55
2023/05/13 04:28:54;;;;;;;;;;;;;;;18.78;63.31;98707.22;2077954;28;19933;-48
2023/05/13 04:29:55;;;;;;;;;;;;;;;18.78;63.42;98712.59;2075490;28;19958;-52
2023/05/13 04:30:56;;;;;;;;;;;;;;;18.78;63.33;98704.53;2078234;28;19929;-54
2023/05/13 04:31:57;;;;;;;;;;;;;;;18.78;63.21;98707.22;2078419;28;20007;-54
2023/05/13 04:32:57;;;;;;;;;;;;;;;18.75;63.32;98697.72;2077234;28;19971;-54
2023/05/13 04:33:59;;;;;;;;;;;;;;;18.77;63.55;98704.72;2076703;28;19944;-51
2023/05/13 04:35:00;;;;;;;;;;;;;;;18.77;63.69;98708.25;2076465;28;22007;-47
2023/05/13 04:36:01;;;;;;;;;;;;;;;18.75;63.36;98704.94;2075218;28;19935;-56
2023/05/13 04:37:02;;;;;;;;;;;;;;;18.76;63.34;98706.59;2077912;28;19921;-56
2023/05/13 04:38:04;;;;;;;;;;;;;;;18.77;63.31;98705.56;2078117;28;19994;-56
2023/05/13 04:39:04;;;;;;;;;;;;;;;18.75;63.34;98707.63;2078645;28;19920;-55
2023/05/13 04:40:06;;;;;;;;;;;;;;;18.76;63.53;98709.28;2076250;28;19971;-54
2023/05/13 04:41:08;;;;;;;;;;;;;;;18.77;63.47;98705.56;2076614;28;19925;-53
2023/05/13 04:42:10;;;;;;;;;;;;;;;18.77;63.57;98708.25;2078060;28;19973;-52
2023/05/13 04:43:10;;;;;;;;;;;;;;;18.76;63.36;98709.28;2076887;28;20023;-48
2023/05/13 04:44:12;;;;;;;;;;;;;;;18.77;63.35;98705.56;2076267;28;19929;-54
2023/05/13 04:45:12;;;;;;;;;;;;;;;18.77;63.43;98704.72;2078052;28;20531;-49
2023/05/13 04:46:13;;;;;;;;;;;;;;;18.74;63.58;98705.97;2076024;28;19960;-55
2023/05/13 04:47:14;;;;;;;;;;;;;;;18.75;63.26;98713.84;2078683;28;19983;-53
2023/05/13 04:48:16;;;;;;;;;;;;;;;18.75;63.58;98707.63;2077136;28;19950;-56
2023/05/13 04:49:16;;;;;;;;;;;;;;;18.74;63.28;98705.97;2077266;28;20381;-50
2023/05/13 04:50:17;;;;;;;;;;;;;;;18.74;63.22;98708.66;2078323;28;19920;-55
2023/05/13 04:51:18;;;;;;;;;;;;;;;18.74;63.51;98712.16;2076420;28;19920;-56
2023/05/13 04:52:19;;;;;;;;;;;;;;;18.75;63.42;98707.63;2076150;28;19925;-54
2023/05/13 04:53:20;;;;;;;;;;;;;;;18.75;63.61;98707.63;2078202;28;19932;-56
2023/05/13 04:54:21;;;;;;;;;;;;;;;18.75;63.37;98703.09;2076907;28;20339;-52
2023/05/13 04:55:22;;;;;;;;;;;;;;;18.75;63.34;98703.09;2078208;28;20435;-54
2023/05/13 04:56:24;;;;;;;;;;;;;;;18.77;63.34;98702.03;2077212;28;19924;-54
2023/05/13 04:57:25;;;;;;;;;;;;;;;18.76;63.42;98703.91;2078055;28;19983;-57
2023/05/13 04:58:26;;;;;;;;;;;;;;;18.75;63.36;98710.31;2068025;28;19925;-53
2023/05/13 04:59:27;;;;;;;;;;;;;;;18.74;63.46;98700.59;2076870;28;20007;-50
2023/05/13 05:00:28;;;;;;;;;;;;;;;18.74;63.28;98706.78;2077389;28;19971;-50
2023/05/13 05:01:29;;;;;;;;;;;;;;;18.76;63.21;98703.91;2076167;28;19997;-52
2023/05/13 05:02:30;;;;;;;;;;;;;;;18.74;63.43;98703.28;2078021;28;19932;-52
2023/05/13 05:03:30;;;;;;;;;;;;;;;18.73;63.48;98702.41;2076918;28;19924;-56
2023/05/13 05:04:32;;;;;;;;;;;;;;;18.71;63.42;98701.78;2075517;28;19921;-49
2023/05/13 05:05:32;;;;;;;;;;;;;;;18.73;63.28;98694.34;2075975;28;20835;-57
2023/05/13 05:06:34;;;;;;;;;;;;;;;18.72;63.39;98692.72;2078604;28;19925;-55
2023/05/13 05:07:38;;;;;;;;;;;;;;;18.74;63.18;98697.91;2076936;28;19971;-52
2023/05/13 05:08:40;;;;;;;;;;;;;;;18.75;63.20;98699.56;2077998;28;19920;-57
2023/05/13 05:09:40;;;;;;;;;;;;;;;18.73;63.33;98694.34;2076854;28;19928;-49
2023/05/13 05:10:42;;;;;;;;;;;;;;;18.74;63.44;98697.91;2076269;28;19983;-50
2023/05/13 05:11:44;;;;;;;;;;;;;;;18.75;63.16;98702.25;2075609;28;20015;-51
2023/05/13 05:12:45;;;;;;;;;;;;;;;18.73;63.31;98701.59;2075149;28;19921;-49
2023/05/13 05:13:45;;;;;;;;;;;;;;;18.74;63.54;98697.91;2077433;28;19975;-52
2023/05/13 05:14:47;;;;;;;;;;;;;;;18.73;63.27;98709.66;2078740;28;19982;-49
2023/05/13 05:15:47;;;;;;;;;;;;;;;18.73;63.19;98704.28;2077586;28;20228;-50
2023/05/13 05:16:49;;;;;;;;;;;;;;;18.74;63.17;98705.97;2076591;28;19925;-51
2023/05/13 05:17:49;;;;;;;;;;;;;;;18.73;63.36;98704.28;2077371;28;19981;-52
2023/05/13 05:18:51;;;;;;;;;;;;;;;18.74;63.45;98703.28;2076933;28;19921;-51
2023/05/13 05:19:51;;;;;;;;;;;;;;;18.73;63.23;98704.28;2077111;28;20005;-50